Goose Rock, Kentucky
Current Conditions -  °F | °C
As of 2:53 AM on Friday 28 Nov 2014 (Local Time) from KLOZ Reporting Station
Overcast Overcast  
Wind Chill: 20°   Ceiling: 3200
Heat Index: 27°   Visibility: 10mi
Dew Point: 16°   Wind: 6mph
Humidity: 63%   Direction: 290°WNW
Pressure: 30.39"   Gusts: NA
Location:  37.09°N, 83.69°W
Report Text: KLOZ 280753Z AUTO 29005KT 10SM OVC032 M03/M09 A3039 RMK AO2 SLP302 T10281089
Loading
Personal Weather Stations






























Interactive Weather Map New forecast layout! Learn more

10-Day Weather Forecast

Advertisements
Track Severe Weather on mobile